createdAt,value
2023-05-14T00:00:57.220Z,21.90
2023-05-14T00:06:04.715Z,22.10
2023-05-14T00:11:12.202Z,18.90
2023-05-14T00:16:19.512Z,18.40
2023-05-14T00:21:26.949Z,15.30
2023-05-14T00:26:34.541Z,18.10
2023-05-14T00:31:41.887Z,19.00
2023-05-14T00:36:49.570Z,19.70
2023-05-14T00:41:57.092Z,18.50
2023-05-14T00:47:05.179Z,23.80
2023-05-14T00:52:14.735Z,23.80
2023-05-14T00:57:22.770Z,24.60
2023-05-14T01:02:30.252Z,26.40
2023-05-14T01:07:51.245Z,22.40
2023-05-14T01:13:05.850Z,27.20
2023-05-14T01:18:15.729Z,28.10
2023-05-14T01:23:23.603Z,34.70
2023-05-14T01:28:35.777Z,26.00
2023-05-14T01:33:45.081Z,30.30
2023-05-14T01:38:53.561Z,22.60
2023-05-14T01:44:01.340Z,26.90
2023-05-14T01:49:09.003Z,29.70
2023-05-14T01:54:16.492Z,27.30
2023-05-14T01:59:23.749Z,24.10
2023-05-14T02:04:31.038Z,26.70
2023-05-14T02:09:38.365Z,22.70
2023-05-14T02:14:46.447Z,26.30
2023-05-14T02:19:53.967Z,27.60
2023-05-14T02:25:01.519Z,23.40
2023-05-14T02:30:10.684Z,21.10
2023-05-14T02:35:19.531Z,20.50
2023-05-14T02:40:27.095Z,20.60
2023-05-14T02:45:34.697Z,21.40
2023-05-14T02:50:42.023Z,22.50
2023-05-14T02:55:49.385Z,20.40
2023-05-14T03:00:56.976Z,18.30
2023-05-14T03:06:05.216Z,26.60
2023-05-14T03:11:13.093Z,18.70
2023-05-14T03:16:20.775Z,16.80
2023-05-14T03:21:28.243Z,22.40
2023-05-14T03:26:35.571Z,27.90
2023-05-14T03:31:42.989Z,19.70
2023-05-14T03:36:50.951Z,21.20
2023-05-14T03:41:59.352Z,20.30
2023-05-14T03:47:07.909Z,19.30
2023-05-14T03:52:15.389Z,17.50
2023-05-14T03:57:24.309Z,18.40
2023-05-14T04:02:31.672Z,17.50
2023-05-14T04:07:39.077Z,22.80
2023-05-14T04:12:46.560Z,16.60
2023-05-14T04:17:54.231Z,17.90
2023-05-14T04:23:01.563Z,19.40
2023-05-14T04:28:09.166Z,15.90
2023-05-14T04:33:16.411Z,14.00
2023-05-14T04:38:24.183Z,14.70
2023-05-14T04:43:31.506Z,12.50
2023-05-14T04:48:39.146Z,13.80
2023-05-14T04:53:46.956Z,11.10
2023-05-14T04:58:54.543Z,13.50
2023-05-14T05:04:01.893Z,14.00
2023-05-14T05:09:10.468Z,15.50
2023-05-14T05:14:17.868Z,14.60
2023-05-14T05:19:35.746Z,12.50
2023-05-14T05:24:49.812Z,14.70
2023-05-14T05:29:57.931Z,11.30
2023-05-14T05:35:05.624Z,14.90
2023-05-14T05:40:14.782Z,12.40
2023-05-14T05:45:22.642Z,13.10
2023-05-14T05:50:30.513Z,11.90
2023-05-14T05:55:38.212Z,15.20
2023-05-14T06:00:45.870Z,10.50
2023-05-14T06:05:53.590Z,11.40
2023-05-14T06:11:01.131Z,14.20
2023-05-14T06:16:09.355Z,10.70
2023-05-14T06:21:16.764Z,12.60
2023-05-14T06:26:24.784Z,10.70
2023-05-14T06:31:32.361Z,11.10
2023-05-14T06:36:39.905Z,10.40
2023-05-14T06:41:47.463Z,10.70
2023-05-14T06:46:55.382Z,11.10
2023-05-14T06:52:04.467Z,9.80
2023-05-14T06:57:12.383Z,10.60
2023-05-14T07:02:20.651Z,8.30
2023-05-14T07:07:28.489Z,8.70
2023-05-14T07:12:37.284Z,10.00
2023-05-14T07:17:44.777Z,8.80
2023-05-14T07:22:52.967Z,9.40
2023-05-14T07:28:00.499Z,8.40
2023-05-14T07:33:08.134Z,8.00
2023-05-14T07:38:16.066Z,11.10
2023-05-14T07:43:24.082Z,6.40
2023-05-14T07:48:31.914Z,7.80
2023-05-14T07:53:39.893Z,9.60
2023-05-14T07:58:47.766Z,7.10
2023-05-14T08:03:55.579Z,5.80
2023-05-14T08:09:05.837Z,5.20
2023-05-14T08:14:13.778Z,6.40
2023-05-14T08:19:21.872Z,5.80
2023-05-14T08:24:30.588Z,5.10
2023-05-14T08:29:38.467Z,11.10
2023-05-14T08:34:45.948Z,7.60
2023-05-14T08:39:54.449Z,10.30
2023-05-14T08:45:05.133Z,5.10
2023-05-14T08:50:13.814Z,6.00
2023-05-14T08:55:21.903Z,4.70
2023-05-14T09:00:29.884Z,5.60
2023-05-14T09:05:37.453Z,5.50
2023-05-14T09:10:44.963Z,7.50
2023-05-14T09:15:53.491Z,5.90
2023-05-14T09:21:02.368Z,6.80
2023-05-14T09:26:11.069Z,3.70
2023-05-14T09:31:18.611Z,4.30
2023-05-14T09:36:27.826Z,4.20
2023-05-14T09:41:35.149Z,4.60
2023-05-14T09:46:42.689Z,4.10
2023-05-14T09:51:50.706Z,4.90
2023-05-14T09:56:58.397Z,5.10
2023-05-14T10:02:07.268Z,4.40
2023-05-14T10:07:16.996Z,3.40
2023-05-14T10:12:31.352Z,5.00
2023-05-14T10:17:43.239Z,5.20
2023-05-14T10:22:50.801Z,7.00
2023-05-14T10:27:58.711Z,8.70
2023-05-14T10:33:14.725Z,5.20
2023-05-14T10:38:31.157Z,4.60
2023-05-14T10:43:41.943Z,4.60
2023-05-14T10:48:50.679Z,7.20
2023-05-14T10:53:59.071Z,5.90
2023-05-14T10:59:08.386Z,6.20
2023-05-14T11:04:25.373Z,4.20
2023-05-14T11:09:34.203Z,4.50
2023-05-14T11:14:41.879Z,3.70
2023-05-14T11:19:51.080Z,7.10
2023-05-14T11:24:59.822Z,6.00
2023-05-14T11:30:14.418Z,5.20
2023-05-14T11:35:22.020Z,5.00
2023-05-14T11:40:29.556Z,8.30
2023-05-14T11:45:38.473Z,5.90
2023-05-14T11:50:49.296Z,7.10
2023-05-14T11:55:58.775Z,4.50
2023-05-14T12:01:06.628Z,5.10
2023-05-14T12:06:13.993Z,5.10
2023-05-14T12:11:24.667Z,4.40
2023-05-14T12:16:36.907Z,5.80
2023-05-14T12:21:48.115Z,5.00
2023-05-14T12:26:55.992Z,5.10
2023-05-14T12:32:05.082Z,5.60
2023-05-14T12:37:12.835Z,4.30
2023-05-14T12:42:20.425Z,4.40
2023-05-14T12:47:28.288Z,5.50
2023-05-14T12:52:39.661Z,3.40
2023-05-14T12:57:48.497Z,4.10
2023-05-14T13:02:56.396Z,3.10
2023-05-14T13:08:04.847Z,4.10
2023-05-14T13:13:15.342Z,5.90
2023-05-14T13:18:27.864Z,5.50
2023-05-14T13:23:35.852Z,3.50
2023-05-14T13:28:43.311Z,3.60
2023-05-14T13:33:50.831Z,4.40
2023-05-14T13:38:58.627Z,3.50
2023-05-14T13:44:06.790Z,4.90
2023-05-14T13:49:14.368Z,3.00
2023-05-14T13:54:21.859Z,5.20
2023-05-14T13:59:30.207Z,3.10
2023-05-14T14:04:38.127Z,5.10
2023-05-14T14:09:45.619Z,2.80
2023-05-14T14:14:53.425Z,3.00
2023-05-14T14:20:00.860Z,4.70
2023-05-14T14:25:09.630Z,3.10
2023-05-14T14:30:17.978Z,3.50
2023-05-14T14:35:25.787Z,4.70
2023-05-14T14:40:34.600Z,5.80
2023-05-14T14:45:43.265Z,4.10
2023-05-14T14:50:50.857Z,5.10
2023-05-14T14:55:59.084Z,4.90
2023-05-14T15:01:06.747Z,3.00
2023-05-14T15:06:14.651Z,3.50
2023-05-14T15:11:22.721Z,5.00
2023-05-14T15:16:30.240Z,5.40
2023-05-14T15:21:38.269Z,3.10
2023-05-14T15:26:46.667Z,6.80
2023-05-14T15:31:54.484Z,5.00
2023-05-14T15:37:02.062Z,3.20
2023-05-14T15:42:10.647Z,3.30
2023-05-14T15:47:18.523Z,4.80
2023-05-14T15:52:26.265Z,5.30
2023-05-14T15:57:33.770Z,4.50
2023-05-14T16:02:41.871Z,4.60
2023-05-14T16:07:49.731Z,3.20
2023-05-14T16:13:01.110Z,4.00
2023-05-14T16:18:09.043Z,3.20
2023-05-14T16:23:16.613Z,3.70
2023-05-14T16:28:23.926Z,4.60
2023-05-14T16:33:31.517Z,7.00
2023-05-14T16:38:44.727Z,6.80
2023-05-14T16:44:00.649Z,6.00
2023-05-14T16:49:08.206Z,7.10
2023-05-14T16:54:17.956Z,6.80
2023-05-14T16:59:26.064Z,6.20
2023-05-14T17:04:33.873Z,4.40
2023-05-14T17:09:42.959Z,5.70
2023-05-14T17:14:50.572Z,5.60
2023-05-14T17:19:58.657Z,4.90
2023-05-14T17:25:06.733Z,4.00
2023-05-14T17:30:15.536Z,5.80
2023-05-14T17:35:24.321Z,6.80
2023-05-14T17:40:31.868Z,5.50
2023-05-14T17:45:53.185Z,8.30
2023-05-14T17:51:02.356Z,9.10
2023-05-14T17:56:10.929Z,7.10
2023-05-14T18:01:18.878Z,9.00
2023-05-14T18:06:27.024Z,8.50
2023-05-14T18:11:35.099Z,9.10
2023-05-14T18:16:43.415Z,10.70
2023-05-14T18:21:51.738Z,9.00
2023-05-14T18:26:59.529Z,7.80
2023-05-14T18:32:09.234Z,8.60
2023-05-14T18:37:17.354Z,6.40
2023-05-14T18:42:25.392Z,8.20
2023-05-14T18:47:33.393Z,7.90
2023-05-14T18:52:40.924Z,10.80
2023-05-14T18:57:49.474Z,6.80
2023-05-14T19:02:58.696Z,10.70
2023-05-14T19:08:06.802Z,13.70
2023-05-14T19:13:18.344Z,9.00
2023-05-14T19:18:26.182Z,14.80
2023-05-14T19:23:34.029Z,12.10
2023-05-14T19:28:43.436Z,12.60
2023-05-14T19:33:51.943Z,16.90
2023-05-14T19:39:06.500Z,12.00
2023-05-14T19:44:14.023Z,9.40
2023-05-14T19:49:21.381Z,14.00
2023-05-14T19:54:29.425Z,11.40
2023-05-14T19:59:38.809Z,12.10
2023-05-14T20:04:46.488Z,8.40
2023-05-14T20:09:54.315Z,11.30
2023-05-14T20:15:02.382Z,12.50
2023-05-14T20:20:12.475Z,13.30
2023-05-14T20:25:20.595Z,13.60
2023-05-14T20:30:27.891Z,12.80
2023-05-14T20:35:35.274Z,10.30
2023-05-14T20:40:45.014Z,13.90
2023-05-14T20:45:54.815Z,10.60
2023-05-14T20:51:05.359Z,10.70
2023-05-14T20:56:12.886Z,10.10
2023-05-14T21:01:21.364Z,11.50
2023-05-14T21:06:29.069Z,12.00
2023-05-14T21:11:36.763Z,10.50
2023-05-14T21:16:45.337Z,9.80
2023-05-14T21:21:53.564Z,11.30
2023-05-14T21:27:00.861Z,10.10
2023-05-14T21:32:10.622Z,9.50
2023-05-14T21:37:18.675Z,11.80
2023-05-14T21:42:26.941Z,11.30
2023-05-14T21:47:36.666Z,10.40
2023-05-14T21:52:45.702Z,8.00
2023-05-14T21:57:54.089Z,8.30
2023-05-14T22:03:02.249Z,9.90
2023-05-14T22:08:11.178Z,10.00
2023-05-14T22:13:19.348Z,8.70
2023-05-14T22:18:29.120Z,7.90
2023-05-14T22:23:37.663Z,7.80
2023-05-14T22:28:46.504Z,10.40
2023-05-14T22:33:54.762Z,9.30
2023-05-14T22:39:04.180Z,11.00
2023-05-14T22:44:11.905Z,11.80
2023-05-14T22:49:19.658Z,6.60
2023-05-14T22:54:27.940Z,7.70
2023-05-14T22:59:35.416Z,8.10
2023-05-14T23:04:43.327Z,8.40
2023-05-14T23:09:52.325Z,7.30
2023-05-14T23:15:01.560Z,9.80
2023-05-14T23:20:14.685Z,9.10
2023-05-14T23:25:22.455Z,10.00
2023-05-14T23:30:30.026Z,8.40
2023-05-14T23:35:37.574Z,10.40
2023-05-14T23:40:44.881Z,9.80
2023-05-14T23:45:52.306Z,12.40
2023-05-14T23:50:59.958Z,12.50
2023-05-14T23:56:08.499Z,11.70
